Polar Lady — WDC4401 — position and weather

sailwx.info

Track history (hours):
 
Tides and Currents Weather Stations Pressure Air Temp Water Temp Dewpoint Dewpoint Depression Visibility Wind Speed Wind Dir Waves Ship Positions

Polar Lady

Owner: M.G.F Fisheries, Seattle, WA. More information available from US FCC via Universal Licensing System and Coast Guard Vessel Documentation Center.

Last reported at 2015-Jul-07 21:04 UTC. Time now 2015-Jul-30 04:05 UTC.
Position N 55°24' W 131°46'.
Warning: this ship's position is 22 days out of date.

Length 40 m.

Type: Fishing. MMSI: 367024080.

Date/timePositionNaut miles runAvg speedWind from/ knotsBaromVisibWave heightAir tempDewpointWater temp
2015-Jul-07 21:04N 55°24' W 131°46'4 8.3
2015-Jul-07 20:33N 55°21' W 131°40'1 1.5
2015-Jul-07 19:33N 55°20' W 131°38'0 0.0
2015-Jul-07 18:33N 55°20' W 131°38'0 0.0
2015-Jul-07 17:33N 55°20' W 131°38'0 0.0
2015-Jul-07 16:33N 55°20' W 131°38'0 0.0
2015-Jul-07 15:33N 55°20' W 131°38'0 0.0
2015-Jul-07 14:33N 55°20' W 131°38'0 0.0
2015-Jul-07 13:33N 55°20' W 131°38'0 0.0
2015-Jul-07 12:33N 55°20' W 131°38'4 4.4
2015-Jul-07 11:33N 55°16' W 131°37'9 8.5
2015-Jul-07 10:33N 55°07' W 131°41'9 8.5
2015-Jul-07 09:31N 54°60' W 131°48'12 2.9
2015-Jul-07 05:28N 54°50' W 131°58'0 0.0
2015-Jul-07 03:24N 54°50' W 131°58'0 0.0
2015-Jul-07 02:32N 54°50' W 131°58'0 0.0
2015-Jul-07 00:10N 54°50' W 131°58'  
Track history (hours):
 
Tides and Currents Weather Stations Pressure Air Temp Water Temp Dewpoint Dewpoint Depression Visibility Wind Speed Wind Dir Waves Ship Positions

Polar Lady

Owner: M.G.F Fisheries, Seattle, WA. More information available from US FCC via Universal Licensing System and Coast Guard Vessel Documentation Center.

Last reported at 2015-Jul-07 21:04 UTC. Time now 2015-Jul-30 04:05 UTC.
Position N 55°24' W 131°46'.
Warning: this ship's position is 22 days out of date.

Length 40 m.

Type: Fishing. MMSI: 367024080.

Date/timePositionNaut miles runAvg speedWind from/ knotsBaromVisibWave heightAir tempDewpointWater temp
2015-Jul-07 21:04N 55°24' W 131°46'4 8.3
2015-Jul-07 20:33N 55°21' W 131°40'1 1.5
2015-Jul-07 19:33N 55°20' W 131°38'0 0.0
2015-Jul-07 18:33N 55°20' W 131°38'0 0.0
2015-Jul-07 17:33N 55°20' W 131°38'0 0.0
2015-Jul-07 16:33N 55°20' W 131°38'0 0.0
2015-Jul-07 15:33N 55°20' W 131°38'0 0.0
2015-Jul-07 14:33N 55°20' W 131°38'0 0.0
2015-Jul-07 13:33N 55°20' W 131°38'0 0.0
2015-Jul-07 12:33N 55°20' W 131°38'4 4.4
2015-Jul-07 11:33N 55°16' W 131°37'9 8.5
2015-Jul-07 10:33N 55°07' W 131°41'9 8.5
2015-Jul-07 09:31N 54°60' W 131°48'12 2.9
2015-Jul-07 05:28N 54°50' W 131°58'0 0.0
2015-Jul-07 03:24N 54°50' W 131°58'0 0.0
2015-Jul-07 02:32N 54°50' W 131°58'0 0.0
2015-Jul-07 00:10N 54°50' W 131°58'  

Dump ship's entire track history